Etusivu
METAR-TAF:

METAR-TAF

Lentoasemat :

Puerto Carreño, Kolumbia

Leveyspiiri: 06-10N, Pituuspiiri: 067-30W, korkeus merenpinnasta: 55 m

Tämänhetkinen sää

Tämä raportti tehtiin 5 tuntia ja 14 minuuttia sitten, kello 23.00 UTC
Tuuli 2 kn eri suunnista
Lämpötila 30°C
Kosteus 66%
Ilmanpaine 1010 hPa
Näkyvyys 10 km tai enemmän
Muutamia pilviä 1700 ft:n korkeudessa

METAR: SKPC 272300Z VRB02KT 9999 FEW017 30/23 Q1010

Aika: 23:14 (04:14 UTC)


TAF: puuttuu

Säähavainnot ja -ennusteet yli 4000 lentoasemalta (METAR- ja TAF-raportit).

Käytössä olevat sääasemat on merkitty karttaan keltaisilla ja punaisilla pisteillä.

Aseta hiiri pisteen päälle nähdäksesi sääaseman nimen.

Klikkaa sitten nähdäksesi säähavainnot ja -ennusteet.

Kartan vaihtaminen: klikkaa mustalla rastilla varustettuja vihreitä pisteitä, niin voit zoomata sisään; viivalla varustettua vihreää pistettä, niin voit zoomata ulos tai vihreitä nuolia, niin pääset viereisille kartoille.


METAR-TAF: